| time (UTC) | temp F | wind direction | speed MPH | gust MPH | rain 1hr in | rain 24hr in | rain mn in | humidity % | barometer mb |
| 20260510174509 | 71 | 79 | 1.0 | 5.0 | 0.00 | 0.00 | 0.00 | 61 | 1013.1 |
| 20260510173007 | 71 | 49 | 1.0 | 6.0 | 0.00 | 0.00 | 0.00 | 60 | 1013.1 |
| 20260510171537 | 71 | 335 | 0.0 | 5.0 | 0.00 | 0.00 | 0.00 | 63 | 1012.9 |
| 20260510170037 | 70 | 352 | 1.0 | 7.0 | 0.00 | 0.00 | 0.00 | 61 | 1012.8 |
| 20260510164537 | 71 | 359 | 1.0 | 7.0 | 0.00 | 0.00 | 0.00 | 60 | 1012.7 |
| 20260510163031 | 71 | 45 | 1.0 | 7.0 | 0.00 | 0.00 | 0.00 | 62 | 1012.6 |
| 20260510161529 | 71 | 48 | 1.0 | 4.0 | 0.00 | 0.00 | 0.00 | 63 | 1012.4 |
| 20260510160024 | 69 | 11 | 0.0 | 4.0 | 0.00 | 0.00 | 0.00 | 65 | 1012.6 |
| 20260510154526 | 69 | 28 | 0.0 | 5.0 | 0.00 | 0.00 | 0.00 | 67 | 1012.5 |
| 20260510153020 | 68 | 100 | 0.0 | 7.0 | 0.00 | 0.00 | 0.00 | 67 | 1012.6 |
| 20260510151519 | 68 | 353 | 1.0 | 9.0 | 0.00 | 0.00 | 0.00 | 67 | 1012.5 |
| 20260510150018 | 68 | 355 | 2.0 | 5.0 | 0.00 | 0.00 | 0.00 | 68 | 1012.3 |
| 20260510144512 | 68 | 341 | 1.0 | 7.0 | 0.00 | 0.00 | 0.00 | 70 | 1012.1 |
| 20260510143011 | 66 | 20 | 1.0 | 5.0 | 0.00 | 0.00 | 0.00 | 72 | 1012.0 |
| 20260510141505 | 66 | 21 | 1.0 | 5.0 | 0.00 | 0.00 | 0.00 | 75 | 1011.8 |
| 20260510140004 | 65 | 32 | 1.0 | 4.0 | 0.00 | 0.00 | 0.00 | 76 | 1011.7 |
| 20260510134628 | 64 | 15 | 1.0 | 6.0 | 0.00 | 0.00 | 0.00 | 76 | 1011.4 |
| 20260510133056 | 63 | 342 | 1.0 | 3.0 | 0.00 | 0.00 | 0.00 | 77 | 1011.1 |
| 20260510131553 | 63 | 21 | 0.0 | 3.0 | 0.00 | 0.00 | 0.00 | 77 | 1010.9 |
| 20260510130051 | 62 | 23 | 0.0 | 3.0 | 0.00 | 0.00 | 0.00 | 79 | 1010.9 |
| 20260510124555 | 61 | 8 | 0.0 | 3.0 | 0.00 | 0.00 | 0.00 | 78 | 1010.8 |
| 20260510123014 | 59 | 352 | 0.0 | 1.0 | 0.00 | 0.00 | 0.00 | 86 | 1010.8 |
| 20260510121510 | 57 | 19 | 0.0 | 2.0 | 0.00 | 0.00 | 0.00 | 91 | 1010.9 |
| 20260510120007 | 56 | 19 | 0.0 | 0.0 | 0.00 | 0.00 | 0.00 | 90 | 1010.5 |
| 20260510114506 | 55 | 19 | 0.0 | 0.0 | 0.00 | 0.00 | 0.00 | 90 | 1010.2 |
| 20260510113003 | 55 | 19 | 0.0 | 0.0 | 0.00 | 0.00 | 0.00 | 91 | 1010.2 |
| 20260510111502 | 55 | 19 | 0.0 | 0.0 | 0.00 | 0.00 | 0.00 | 91 | 1010.2 |
| 20260510110100 | 54 | 19 | 0.0 | 0.0 | 0.00 | 0.00 | 0.00 | 91 | 1010.2 |
| 20260510104613 | 54 | 359 | 0.0 | 0.0 | 0.00 | 0.00 | 0.00 | 90 | 1009.9 |
| 20260510103056 | 55 | 357 | 0.0 | 0.0 | 0.00 | 0.00 | 0.00 | 90 | 1009.6 |
| 20260510101555 | 55 | 357 | 0.0 | 0.0 | 0.00 | 0.00 | 0.00 | 90 | 1009.6 |
| 20260510100049 | 55 | 357 | 0.0 | 0.0 | 0.00 | 0.00 | 0.00 | 88 | 1009.3 |
| 20260510094547 | 55 | 357 | 0.0 | 0.0 | 0.00 | 0.00 | 0.00 | 88 | 1008.9 |
| 20260510093045 | 56 | 357 | 0.0 | 0.0 | 0.00 | 0.00 | 0.00 | 86 | 1008.7 |
| 20260510091543 | 56 | 357 | 0.0 | 0.0 | 0.00 | 0.00 | 0.00 | 86 | 1009.0 |
| 20260510090011 | 57 | 357 | 0.0 | 0.0 | 0.00 | 0.00 | 0.00 | 85 | 1008.9 |
| 20260510084511 | 57 | 357 | 0.0 | 0.0 | 0.00 | 0.00 | 0.00 | 82 | 1009.1 |
| 20260510083048 | 57 | 357 | 0.0 | 4.0 | 0.00 | 0.00 | 0.00 | 83 | 1009.0 |
| 20260510081557 | 54 | 21 | 0.0 | 0.0 | 0.00 | 0.00 | 0.00 | 90 | 1008.6 |
| 20260510080002 | 54 | 21 | 0.0 | 0.0 | 0.00 | 0.00 | 0.00 | 89 | 1008.4 |
| 20260510074501 | 54 | 21 | 0.0 | 0.0 | 0.00 | 0.00 | 0.00 | 88 | 1008.1 |
| 20260510073032 | 54 | 21 | 0.0 | 0.0 | 0.00 | 0.00 | 0.00 | 88 | 1008.2 |
| 20260510071530 | 55 | 21 | 0.0 | 0.0 | 0.00 | 0.00 | 0.00 | 88 | 1008.2 |
| 20260510064558 | 54 | 21 | 0.0 | 0.0 | 0.00 | 0.00 | 0.00 | 87 | 1008.4 |
| 20260510063105 | 55 | 21 | 0.0 | 0.0 | 0.00 | 0.00 | 0.00 | 86 | 1008.5 |
| 20260510061556 | 54 | 21 | 0.0 | 0.0 | 0.00 | 0.00 | 0.00 | 85 | 1008.5 |
| 20260510060059 | 55 | 21 | 0.0 | 0.0 | 0.00 | 0.00 | 0.00 | 84 | 1008.6 |
| 20260510054558 | 56 | 21 | 0.0 | 0.0 | 0.00 | 0.00 | 0.00 | 84 | 1008.5 |
| 20260510053024 | 56 | 21 | 0.0 | 0.0 | 0.00 | 0.00 | 0.00 | 81 | 1008.3 |
| 20260510051524 | 57 | 21 | 0.0 | 0.0 | 0.00 | 0.00 | 0.00 | 80 | 1008.5 |
| 20260510050020 | 58 | 21 | 0.0 | 0.0 | 0.00 | 0.00 | 0.00 | 78 | 1008.2 |
| 20260510044518 | 59 | 21 | 0.0 | 0.0 | 0.00 | 0.00 | 0.00 | 75 | 1007.9 |
| 20260510043018 | 59 | 21 | 0.0 | 0.0 | 0.00 | 0.00 | 0.00 | 73 | 1007.8 |
| 20260510041520 | 59 | 21 | 0.0 | 0.0 | 0.00 | 0.00 | 0.00 | 74 | 1007.8 |
| 20260510040048 | 60 | 20 | 0.0 | 1.0 | 0.00 | 0.00 | 0.00 | 73 | 1007.8 |
| 20260510034553 | 60 | 21 | 0.0 | 0.0 | 0.00 | 0.00 | 0.00 | 72 | 1007.8 |
| 20260510033047 | 60 | 21 | 0.0 | 1.0 | 0.00 | 0.00 | 0.00 | 73 | 1007.6 |
| 20260510031608 | 59 | 21 | 0.0 | 0.0 | 0.00 | 0.00 | 0.00 | 76 | 1007.3 |
| 20260510030040 | 58 | 21 | 0.0 | 0.0 | 0.00 | 0.00 | 0.00 | 78 | 1007.2 |
| 20260510024540 | 59 | 21 | 0.0 | 0.0 | 0.00 | 0.00 | 0.00 | 79 | 1006.9 |
| 20260510023045 | 60 | 21 | 0.0 | 1.0 | 0.00 | 0.00 | 0.00 | 77 | 1006.6 |
| 20260510021536 | 60 | 21 | 0.0 | 0.0 | 0.00 | 0.00 | 0.00 | 76 | 1006.4 |
| 20260510020033 | 61 | 21 | 0.0 | 0.0 | 0.00 | 0.00 | 0.00 | 75 | 1006.1 |
| 20260510014533 | 61 | 21 | 0.0 | 0.0 | 0.00 | 0.00 | 0.00 | 76 | 1006.0 |
| 20260510013028 | 62 | 21 | 0.0 | 0.0 | 0.00 | 0.00 | 0.00 | 74 | 1005.9 |
| 20260510011529 | 64 | 24 | 0.0 | 0.0 | 0.00 | 0.00 | 0.00 | 72 | 1005.7 |
| 20260510010029 | 66 | 24 | 0.0 | 0.0 | 0.00 | 0.00 | 0.00 | 69 | 1005.5 |
| 20260510004527 | 68 | 24 | 0.0 | 0.0 | 0.00 | 0.00 | 0.00 | 64 | 1005.4 |
| 20260510003025 | 70 | 24 | 0.0 | 0.0 | 0.00 | 0.00 | 0.00 | 60 | 1005.0 |
| 20260510001524 | 72 | 50 | 0.0 | 1.0 | 0.00 | 0.00 | 0.00 | 54 | 1004.9 |
| 20260510000024 | 73 | 97 | 0.0 | 1.0 | 0.00 | 0.00 | 0.00 | 54 | 1004.8 |
| 20260509234524 | 74 | 63 | 0.0 | 0.0 | 0.00 | 0.00 | 0.00 | 52 | 1004.8 |
| 20260509233022 | 75 | 38 | 0.0 | 1.0 | 0.00 | 0.00 | 0.00 | 53 | 1004.8 |
| 20260509231519 | 74 | 38 | 0.0 | 0.0 | 0.00 | 0.00 | 0.00 | 57 | 1004.9 |
| 20260509230022 | 74 | 38 | 0.0 | 0.0 | 0.00 | 0.00 | 0.00 | 61 | 1004.9 |
| 20260509230019 | 74 | 38 | 0.0 | 0.0 | 0.00 | 0.00 | 0.00 | 60 | 1004.9 |
| 20260509224520 | 76 | 38 | 0.0 | 0.0 | 0.00 | 0.00 | 0.00 | 54 | 1004.7 |
| 20260509223022 | 79 | 38 | 0.0 | 1.0 | 0.00 | 0.00 | 0.00 | 51 | 1004.7 |
| 20260509221516 | 80 | 52 | 0.0 | 2.0 | 0.00 | 0.00 | 0.00 | 42 | 1004.6 |
| 20260509220016 | 78 | 14 | 0.0 | 0.0 | 0.00 | 0.00 | 0.00 | 55 | 1004.6 |
| 20260509214515 | 81 | 14 | 0.0 | 0.0 | 0.00 | 0.00 | 0.00 | 45 | 1004.5 |
| 20260509213015 | 84 | 14 | 0.0 | 2.0 | 0.00 | 0.00 | 0.00 | 32 | 1004.6 |
| 20260509211525 | 83 | 31 | 0.0 | 1.0 | 0.00 | 0.00 | 0.00 | 34 | 1004.6 |
| 20260509210015 | 83 | 47 | 0.0 | 3.0 | 0.00 | 0.00 | 0.00 | 35 | 1004.8 |
| 20260509204511 | 82 | 357 | 0.0 | 2.0 | 0.00 | 0.00 | 0.00 | 32 | 1005.1 |
| 20260509203026 | 82 | 158 | 0.0 | 2.0 | 0.00 | 0.00 | 0.00 | 35 | 1005.2 |
| 20260509201508 | 84 | 26 | 0.0 | 2.0 | 0.00 | 0.00 | 0.00 | 33 | 1005.4 |
| 20260509200008 | 84 | 77 | 0.0 | 4.0 | 0.00 | 0.00 | 0.00 | 36 | 1005.5 |
| 20260509194506 | 83 | 118 | 1.0 | 2.0 | 0.00 | 0.00 | 0.00 | 34 | 1005.6 |
| 20260509193005 | 82 | 19 | 1.0 | 4.0 | 0.00 | 0.00 | 0.00 | 32 | 1005.6 |
| 20260509191502 | 82 | 18 | 0.0 | 3.0 | 0.00 | 0.00 | 0.00 | 33 | 1005.7 |
| 20260509190106 | 82 | 100 | 0.0 | 3.0 | 0.00 | 0.00 | 0.00 | 35 | 1005.8 |
| 20260509184600 | 82 | 9 | 1.0 | 6.0 | 0.00 | 0.00 | 0.00 | 30 | 1005.9 |
| 20260509183059 | 82 | 338 | 1.0 | 3.0 | 0.00 | 0.00 | 0.00 | 32 | 1005.9 |
| 20260509181608 | 81 | 196 | 1.0 | 4.0 | 0.00 | 0.00 | 0.00 | 33 | 1005.8 |
| 20260509180055 | 82 | 40 | 1.0 | 4.0 | 0.00 | 0.00 | 0.00 | 31 | 1005.9 |